createdAt,value
2022-12-09T00:01:05.535Z,33.83
2022-12-09T00:03:32.530Z,34.42
2022-12-09T00:05:59.727Z,35.42
2022-12-09T00:08:26.545Z,33.50
2022-12-09T00:10:53.567Z,39.67
2022-12-09T00:13:20.690Z,31.25
2022-12-09T00:15:47.552Z,38.80
2022-12-09T00:18:14.505Z,40.13
2022-12-09T00:20:41.208Z,39.10
2022-12-09T00:23:07.890Z,39.60
2022-12-09T00:25:34.684Z,40.45
2022-12-09T00:28:01.593Z,40.45
2022-12-09T00:30:28.591Z,38.40
2022-12-09T00:32:55.365Z,43.60
2022-12-09T00:35:23.080Z,36.22
2022-12-09T00:37:49.949Z,49.33
2022-12-09T00:40:16.830Z,35.50
2022-12-09T00:43:17.640Z,39.45
2022-12-09T00:45:45.423Z,39.28
2022-12-09T00:48:12.229Z,38.15
2022-12-09T00:50:38.960Z,38.38
2022-12-09T00:53:05.866Z,44.60
2022-12-09T00:55:32.650Z,36.20
2022-12-09T00:57:59.428Z,42.03
2022-12-09T01:00:26.370Z,33.40
2022-12-09T01:02:53.307Z,40.65
2022-12-09T01:05:20.602Z,38.45
2022-12-09T01:07:47.852Z,33.63
2022-12-09T01:10:15.446Z,43.00
2022-12-09T01:12:42.657Z,38.38
2022-12-09T01:15:10.539Z,42.70
2022-12-09T01:17:38.739Z,40.40
2022-12-09T01:20:07.689Z,38.13
2022-12-09T01:22:34.857Z,40.40
2022-12-09T01:25:01.978Z,41.88
2022-12-09T01:27:31.753Z,39.00
2022-12-09T01:29:58.440Z,30.25
2022-12-09T01:32:25.944Z,43.75
2022-12-09T01:34:53.041Z,37.63
2022-12-09T01:37:19.750Z,40.85
2022-12-09T01:39:46.581Z,43.90
2022-12-09T01:42:21.723Z,42.88
2022-12-09T01:45:30.742Z,40.45
2022-12-09T01:48:05.561Z,40.42
2022-12-09T01:50:34.994Z,42.15
2022-12-09T01:53:02.162Z,41.85
2022-12-09T01:55:29.344Z,52.75
2022-12-09T01:57:56.150Z,41.80
2022-12-09T02:00:22.932Z,41.47
2022-12-09T02:02:52.401Z,39.90
2022-12-09T02:05:21.725Z,43.20
2022-12-09T02:07:48.696Z,44.95
2022-12-09T02:10:18.075Z,40.30
2022-12-09T02:13:07.148Z,41.25
2022-12-09T02:15:45.402Z,41.30
2022-12-09T02:18:36.733Z,40.70
2022-12-09T02:21:11.901Z,38.45
2022-12-09T02:23:42.673Z,36.42
2022-12-09T02:26:28.395Z,40.63
2022-12-09T02:29:24.886Z,40.25
2022-12-09T02:32:29.445Z,40.63
2022-12-09T02:35:01.954Z,37.83
2022-12-09T02:37:41.835Z,40.95
2022-12-09T02:40:32.520Z,40.70
2022-12-09T02:43:02.796Z,38.75
2022-12-09T02:45:31.710Z,41.35
2022-12-09T02:48:01.456Z,38.95
2022-12-09T02:50:34.172Z,37.88
2022-12-09T02:53:07.159Z,41.65
2022-12-09T02:55:35.521Z,41.28
2022-12-09T02:58:03.131Z,40.95
2022-12-09T03:00:30.638Z,45.38
2022-12-09T03:03:01.524Z,40.10
2022-12-09T03:06:13.136Z,39.28
2022-12-09T03:08:42.936Z,42.97
2022-12-09T03:11:14.341Z,41.15
2022-12-09T03:14:00.102Z,30.88
2022-12-09T03:16:34.050Z,42.03
2022-12-09T03:19:36.832Z,39.63
2022-12-09T03:22:08.797Z,39.67
2022-12-09T03:24:54.500Z,41.78
2022-12-09T03:27:59.881Z,42.63
2022-12-09T03:30:26.815Z,45.03
2022-12-09T03:32:55.794Z,39.63
2022-12-09T03:35:26.761Z,39.60
2022-12-09T03:37:54.007Z,40.67
2022-12-09T03:40:26.978Z,36.60
2022-12-09T03:43:00.201Z,44.20
2022-12-09T03:45:27.714Z,40.05
2022-12-09T03:47:55.500Z,39.25
2022-12-09T03:50:27.616Z,38.53
2022-12-09T03:53:04.546Z,42.22
2022-12-09T03:55:45.170Z,28.35
2022-12-09T03:58:13.821Z,40.78
2022-12-09T04:00:40.928Z,37.78
2022-12-09T04:03:08.300Z,36.85
2022-12-09T04:05:35.739Z,40.22
2022-12-09T04:08:02.643Z,37.17
2022-12-09T04:10:29.796Z,39.70
2022-12-09T04:12:56.539Z,38.70
2022-12-09T04:15:23.675Z,38.97
2022-12-09T04:17:50.624Z,38.40
2022-12-09T04:20:17.564Z,37.90
2022-12-09T04:22:44.516Z,35.20
2022-12-09T04:25:11.672Z,39.58
2022-12-09T04:27:38.946Z,38.08
2022-12-09T04:30:07.315Z,40.10
2022-12-09T04:32:34.677Z,35.50
2022-12-09T04:35:01.653Z,36.17
2022-12-09T04:37:28.825Z,37.88
2022-12-09T04:39:55.583Z,35.75
2022-12-09T04:42:22.662Z,38.80
2022-12-09T04:44:49.649Z,37.17
2022-12-09T04:47:16.932Z,39.00
2022-12-09T04:49:44.095Z,38.75
2022-12-09T04:52:10.858Z,33.08
2022-12-09T04:54:37.999Z,41.40
2022-12-09T04:57:04.939Z,37.08
2022-12-09T04:59:32.429Z,32.28
2022-12-09T05:01:59.430Z,31.58
2022-12-09T05:04:26.453Z,34.40
2022-12-09T05:06:53.563Z,35.10
2022-12-09T05:09:20.514Z,37.50
2022-12-09T05:11:48.656Z,33.53
2022-12-09T05:14:15.870Z,33.25
2022-12-09T05:16:42.857Z,36.97
2022-12-09T05:19:10.500Z,39.40
2022-12-09T05:21:37.452Z,38.28
2022-12-09T05:24:05.009Z,33.97
2022-12-09T05:26:31.823Z,35.00
2022-12-09T05:28:59.019Z,38.90
2022-12-09T05:31:26.095Z,28.70
2022-12-09T05:33:53.343Z,30.40
2022-12-09T05:36:24.610Z,36.20
2022-12-09T05:38:52.726Z,32.42
2022-12-09T05:41:20.533Z,36.70
2022-12-09T05:43:47.697Z,39.38
2022-12-09T05:46:15.753Z,31.98
2022-12-09T05:48:42.777Z,31.75
2022-12-09T05:51:16.810Z,32.83
2022-12-09T05:53:44.427Z,38.30
2022-12-09T05:56:16.178Z,38.80
2022-12-09T05:58:43.794Z,38.03
2022-12-09T06:01:12.532Z,34.97
2022-12-09T06:03:39.787Z,38.53
2022-12-09T06:06:07.373Z,29.15
2022-12-09T06:08:34.343Z,28.30
2022-12-09T06:11:01.695Z,34.97
2022-12-09T06:13:29.330Z,37.72
2022-12-09T06:15:56.221Z,32.95
2022-12-09T06:18:23.130Z,33.08
2022-12-09T06:20:50.743Z,35.60
2022-12-09T06:23:17.741Z,35.72
2022-12-09T06:25:45.937Z,34.83
2022-12-09T06:28:12.989Z,36.05
2022-12-09T06:30:40.241Z,33.35
2022-12-09T06:33:29.161Z,22.90
2022-12-09T06:35:54.249Z,37.40
2022-12-09T06:38:21.413Z,33.65
2022-12-09T06:40:48.541Z,22.75
2022-12-09T06:43:15.642Z,33.30
2022-12-09T06:45:42.857Z,33.65
2022-12-09T06:48:09.998Z,23.85
2022-12-09T06:50:37.214Z,30.95
2022-12-09T06:53:04.914Z,23.92
2022-12-09T06:55:31.803Z,25.88
2022-12-09T06:57:59.792Z,29.45
2022-12-09T07:00:26.747Z,27.73
2022-12-09T07:02:54.575Z,30.88
2022-12-09T07:05:25.195Z,21.33
2022-12-09T07:07:53.075Z,21.23
2022-12-09T07:10:20.823Z,28.80
2022-12-09T07:12:48.265Z,22.38
2022-12-09T07:15:15.504Z,30.92
2022-12-09T07:17:42.645Z,30.65
2022-12-09T07:20:10.468Z,28.33
2022-12-09T07:22:37.896Z,25.90
2022-12-09T07:25:05.957Z,32.72
2022-12-09T07:27:33.322Z,35.53
2022-12-09T07:30:01.935Z,27.48
2022-12-09T07:32:28.954Z,28.35
2022-12-09T07:34:56.286Z,30.65
2022-12-09T07:37:23.260Z,25.27
2022-12-09T07:39:50.259Z,31.05
2022-12-09T07:42:17.387Z,31.40
2022-12-09T07:44:44.302Z,27.50
2022-12-09T07:47:11.133Z,30.60
2022-12-09T07:49:38.414Z,29.95
2022-12-09T07:52:06.339Z,29.15
2022-12-09T07:54:33.292Z,26.92
2022-12-09T07:57:00.430Z,33.97
2022-12-09T07:59:27.734Z,29.38
2022-12-09T08:01:54.893Z,25.33
2022-12-09T08:04:21.918Z,29.77
2022-12-09T08:06:49.302Z,28.98
2022-12-09T08:09:16.664Z,31.58
2022-12-09T08:11:43.732Z,31.17
2022-12-09T08:14:13.066Z,28.63
2022-12-09T08:16:42.613Z,25.58
2022-12-09T08:19:10.527Z,30.88
2022-12-09T08:21:38.342Z,29.75
2022-12-09T08:24:08.814Z,26.33
2022-12-09T08:26:37.544Z,21.65
2022-12-09T08:29:09.134Z,29.63
2022-12-09T08:31:41.037Z,21.15
2022-12-09T08:34:19.841Z,23.05
2022-12-09T08:36:49.033Z,28.45
2022-12-09T08:39:20.825Z,23.40
2022-12-09T08:41:49.618Z,23.42
2022-12-09T08:44:20.246Z,23.52
2022-12-09T08:46:53.097Z,19.98
2022-12-09T08:49:36.781Z,23.10
2022-12-09T08:52:11.490Z,22.30
2022-12-09T08:57:25.141Z,24.27
2022-12-09T08:59:53.842Z,27.08
2022-12-09T09:02:23.874Z,26.98
2022-12-09T09:04:52.692Z,23.02
2022-12-09T09:10:09.259Z,28.73
2022-12-09T09:12:43.528Z,24.17
2022-12-09T09:15:12.583Z,25.25
2022-12-09T09:17:48.155Z,27.45
2022-12-09T09:20:27.555Z,26.75
2022-12-09T09:23:02.591Z,31.95
2022-12-09T09:25:52.300Z,30.40
2022-12-09T09:28:26.061Z,25.40
2022-12-09T09:31:08.439Z,25.40
2022-12-09T09:33:35.926Z,27.73
2022-12-09T09:36:10.406Z,27.33
2022-12-09T09:38:43.198Z,30.25
2022-12-09T09:41:53.544Z,23.83
2022-12-09T09:44:45.542Z,29.13
2022-12-09T09:47:39.905Z,28.20
2022-12-09T09:50:36.130Z,22.67
2022-12-09T09:53:29.421Z,29.05
2022-12-09T09:56:23.411Z,23.90
2022-12-09T09:59:19.574Z,22.20
2022-12-09T10:01:58.172Z,22.80
2022-12-09T10:04:47.034Z,22.50
2022-12-09T10:07:45.929Z,25.77
2022-12-09T10:10:54.730Z,24.63
2022-12-09T10:13:47.589Z,23.23
2022-12-09T10:16:43.797Z,25.80
2022-12-09T10:19:43.503Z,27.70
2022-12-09T10:22:24.797Z,22.77
2022-12-09T10:24:57.130Z,31.10
2022-12-09T10:27:49.281Z,28.35
2022-12-09T10:30:26.295Z,29.70
2022-12-09T10:33:02.994Z,28.63
2022-12-09T10:35:32.612Z,27.75
2022-12-09T10:38:21.026Z,29.23
2022-12-09T10:40:50.664Z,32.13
2022-12-09T10:43:36.400Z,31.85
2022-12-09T10:46:27.529Z,29.55
2022-12-09T10:49:15.087Z,30.02
2022-12-09T10:52:03.775Z,31.38
2022-12-09T10:54:43.552Z,30.48
2022-12-09T10:57:32.072Z,20.25
2022-12-09T11:00:11.379Z,32.75
2022-12-09T11:02:53.217Z,23.20
2022-12-09T11:05:39.277Z,23.02
2022-12-09T11:08:11.714Z,27.80
2022-12-09T11:10:49.583Z,31.75
2022-12-09T11:13:21.681Z,24.75
2022-12-09T11:16:07.109Z,26.48
2022-12-09T11:18:48.139Z,28.50
2022-12-09T11:21:48.751Z,27.10
2022-12-09T11:24:31.824Z,27.17
2022-12-09T11:27:01.938Z,26.27
2022-12-09T11:29:39.694Z,28.35
2022-12-09T11:32:16.954Z,24.10
2022-12-09T11:34:52.915Z,30.30
2022-12-09T11:37:30.749Z,25.98
2022-12-09T11:40:01.794Z,25.00
2022-12-09T11:45:30.843Z,24.63
2022-12-09T11:48:46.446Z,23.38
2022-12-09T11:51:28.064Z,21.33
2022-12-09T11:54:06.999Z,21.15
2022-12-09T11:56:44.623Z,25.58
2022-12-09T11:59:24.016Z,21.42
2022-12-09T12:02:31.897Z,23.23
2022-12-09T12:05:44.223Z,26.30
2022-12-09T12:08:46.783Z,24.50
2022-12-09T12:11:28.103Z,24.38
2022-12-09T12:14:13.649Z,22.45
2022-12-09T12:16:56.119Z,24.30
2022-12-09T12:19:39.888Z,20.40
2022-12-09T12:23:12.681Z,23.63
2022-12-09T12:25:55.884Z,21.20
2022-12-09T12:28:46.095Z,21.00
2022-12-09T12:31:53.023Z,27.67
2022-12-09T12:35:04.290Z,24.40
2022-12-09T12:38:32.358Z,22.90
2022-12-09T12:41:19.432Z,19.60
2022-12-09T12:44:58.020Z,26.65
2022-12-09T12:47:47.138Z,19.35
2022-12-09T12:50:43.775Z,20.83
2022-12-09T12:53:34.938Z,32.08
2022-12-09T12:56:29.038Z,18.90
2022-12-09T12:59:20.643Z,24.73
2022-12-09T13:02:08.402Z,18.35
2022-12-09T13:04:50.309Z,19.55
2022-12-09T13:07:36.651Z,17.02
2022-12-09T13:10:48.455Z,19.10
2022-12-09T13:13:32.536Z,23.63
2022-12-09T13:16:32.667Z,20.27
2022-12-09T13:22:46.691Z,20.27
2022-12-09T13:25:44.520Z,17.98
2022-12-09T13:28:23.953Z,18.05
2022-12-09T13:34:02.696Z,18.00
2022-12-09T13:36:51.141Z,17.08
2022-12-09T13:39:46.626Z,16.38
2022-12-09T13:42:47.516Z,15.43
2022-12-09T13:45:23.821Z,15.18
2022-12-09T13:47:59.050Z,16.15
2022-12-09T13:50:37.133Z,16.05
2022-12-09T13:53:45.624Z,16.92
2022-12-09T13:56:30.809Z,16.55
2022-12-09T13:59:43.109Z,16.13
2022-12-09T14:02:31.854Z,18.10
2022-12-09T14:05:17.707Z,17.17
2022-12-09T14:08:07.803Z,17.73
2022-12-09T14:13:36.668Z,15.38
2022-12-09T14:16:31.432Z,15.95
2022-12-09T14:19:34.919Z,16.42
2022-12-09T14:22:21.900Z,15.27
2022-12-09T14:25:23.475Z,15.27
2022-12-09T14:28:27.603Z,15.48
2022-12-09T14:31:08.662Z,15.07
2022-12-09T14:33:47.819Z,15.18
2022-12-09T14:36:34.042Z,15.70
2022-12-09T14:39:33.123Z,16.15
2022-12-09T14:42:09.082Z,18.63
2022-12-09T14:45:12.453Z,21.38
2022-12-09T14:47:49.470Z,24.48
2022-12-09T14:50:24.401Z,25.33
2022-12-09T14:53:07.011Z,26.15
2022-12-09T14:55:46.617Z,26.45
2022-12-09T14:58:31.044Z,28.83
2022-12-09T15:01:09.360Z,29.65
2022-12-09T15:03:45.806Z,38.97
2022-12-09T15:06:19.378Z,39.10
2022-12-09T15:08:51.389Z,34.40
2022-12-09T15:11:30.504Z,35.95
2022-12-09T15:14:31.435Z,47.20
2022-12-09T15:17:01.669Z,40.33
2022-12-09T15:22:30.823Z,36.15
2022-12-09T15:25:04.937Z,41.97
2022-12-09T15:27:34.704Z,38.08
2022-12-09T15:30:19.873Z,47.13
2022-12-09T15:32:51.174Z,41.65
2022-12-09T15:35:28.987Z,56.45
2022-12-09T15:38:00.225Z,41.55
2022-12-09T15:40:43.142Z,69.22
2022-12-09T15:43:15.389Z,63.42
2022-12-09T15:45:58.917Z,57.13
2022-12-09T15:48:40.451Z,56.47
2022-12-09T15:51:14.768Z,55.60
2022-12-09T15:54:09.448Z,60.17
2022-12-09T15:56:47.759Z,54.50
2022-12-09T15:59:56.091Z,42.42
2022-12-09T16:02:33.378Z,52.78
2022-12-09T16:05:07.060Z,53.35
2022-12-09T16:07:38.452Z,53.88
2022-12-09T16:10:29.949Z,60.15
2022-12-09T16:13:15.403Z,50.67
2022-12-09T16:16:08.602Z,52.67
2022-12-09T16:18:50.084Z,49.25
2022-12-09T16:21:33.738Z,39.58
2022-12-09T16:24:18.047Z,52.92
2022-12-09T16:26:47.153Z,52.63
2022-12-09T16:29:32.697Z,50.92
2022-12-09T16:32:55.809Z,42.97
2022-12-09T16:35:43.152Z,43.97
2022-12-09T16:38:20.819Z,67.90
2022-12-09T16:40:57.478Z,53.00
2022-12-09T16:43:33.064Z,64.90
2022-12-09T16:46:22.607Z,48.13
2022-12-09T16:48:53.543Z,46.05
2022-12-09T16:51:36.412Z,57.53
2022-12-09T16:54:19.635Z,53.47
2022-12-09T16:56:54.910Z,56.63
2022-12-09T16:59:39.939Z,54.97
2022-12-09T17:02:43.075Z,44.67
2022-12-09T17:05:11.832Z,56.10
2022-12-09T17:07:40.671Z,53.38
2022-12-09T17:10:14.826Z,58.60
2022-12-09T17:12:44.875Z,56.13
2022-12-09T17:15:23.408Z,57.95
2022-12-09T17:17:58.854Z,60.38
2022-12-09T17:20:27.630Z,57.50
2022-12-09T17:23:10.402Z,64.45
2022-12-09T17:25:38.147Z,55.67
2022-12-09T17:28:09.949Z,55.78
2022-12-09T17:30:44.028Z,59.20
2022-12-09T17:33:23.054Z,42.90
2022-12-09T17:35:53.325Z,63.47
2022-12-09T17:38:25.988Z,55.03
2022-12-09T17:40:59.821Z,57.40
2022-12-09T17:43:28.863Z,44.53
2022-12-09T17:46:05.991Z,52.17
2022-12-09T17:48:37.287Z,39.70
2022-12-09T17:51:20.325Z,55.67
2022-12-09T17:53:47.883Z,61.30
2022-12-09T17:56:20.449Z,51.83
2022-12-09T17:59:00.458Z,58.58
2022-12-09T18:01:39.027Z,57.58
2022-12-09T18:04:12.483Z,45.10
2022-12-09T18:06:54.437Z,55.95
2022-12-09T18:09:23.284Z,47.65
2022-12-09T18:12:05.576Z,54.25
2022-12-09T18:14:34.514Z,49.47
2022-12-09T18:17:06.108Z,38.55
2022-12-09T18:19:36.497Z,52.25
2022-12-09T18:22:06.812Z,42.15
2022-12-09T18:24:35.462Z,43.47
2022-12-09T18:27:09.066Z,64.18
2022-12-09T18:29:42.636Z,54.13
2022-12-09T18:32:15.248Z,44.85
2022-12-09T18:34:42.267Z,51.85
2022-12-09T18:37:09.542Z,66.03
2022-12-09T18:39:40.131Z,53.63
2022-12-09T18:42:13.130Z,44.50
2022-12-09T18:44:40.450Z,57.10
2022-12-09T18:47:08.098Z,54.35
2022-12-09T18:49:39.074Z,53.00
2022-12-09T18:52:45.224Z,47.50
2022-12-09T18:55:14.813Z,52.30
2022-12-09T18:57:50.305Z,51.25
2022-12-09T19:00:24.777Z,49.38
2022-12-09T19:02:57.686Z,53.65
2022-12-09T19:05:26.133Z,54.95
2022-12-09T19:07:55.376Z,61.22
2022-12-09T19:10:24.393Z,54.15
2022-12-09T19:12:57.109Z,53.60
2022-12-09T19:15:31.184Z,49.95
2022-12-09T19:17:59.810Z,53.25
2022-12-09T19:20:34.146Z,48.63
2022-12-09T19:23:04.622Z,53.95
2022-12-09T19:25:32.969Z,55.10
2022-12-09T19:28:06.153Z,55.90
2022-12-09T19:30:49.493Z,49.55
2022-12-09T19:33:19.608Z,48.85
2022-12-09T19:35:46.651Z,48.22
2022-12-09T19:38:17.352Z,50.35
2022-12-09T19:40:44.304Z,47.58
2022-12-09T19:43:37.924Z,53.33
2022-12-09T19:46:12.900Z,47.22
2022-12-09T19:48:46.816Z,51.00
2022-12-09T19:54:10.591Z,46.13
2022-12-09T19:56:47.885Z,49.05
2022-12-09T19:59:25.641Z,50.58
2022-12-09T20:01:58.927Z,50.70
2022-12-09T20:07:17.076Z,59.13
2022-12-09T20:09:48.237Z,52.28
2022-12-09T20:12:18.506Z,58.70
2022-12-09T20:14:46.757Z,47.20
2022-12-09T20:17:18.792Z,50.03
2022-12-09T20:19:47.297Z,46.00
2022-12-09T20:22:16.011Z,50.05
2022-12-09T20:24:50.235Z,52.03
2022-12-09T20:27:30.787Z,47.42
2022-12-09T20:30:31.080Z,46.45
2022-12-09T20:33:02.601Z,37.33
2022-12-09T20:35:32.427Z,50.10
2022-12-09T20:40:43.902Z,48.50
2022-12-09T20:43:22.123Z,47.78
2022-12-09T20:45:50.728Z,38.65
2022-12-09T20:48:19.977Z,53.60
2022-12-09T20:50:55.099Z,44.78
2022-12-09T20:53:25.457Z,44.70
2022-12-09T20:58:58.131Z,50.28
2022-12-09T21:01:33.663Z,50.65
2022-12-09T21:04:04.144Z,48.10
2022-12-09T21:06:35.677Z,57.17
2022-12-09T21:09:06.678Z,51.97
2022-12-09T21:11:34.208Z,40.42
2022-12-09T21:14:05.445Z,53.13
2022-12-09T21:16:37.430Z,44.80
2022-12-09T21:19:13.442Z,57.80
2022-12-09T21:21:50.147Z,56.50
2022-12-09T21:24:18.606Z,59.67
2022-12-09T21:26:50.046Z,64.25
2022-12-09T21:29:18.878Z,60.47
2022-12-09T21:31:51.217Z,56.78
2022-12-09T21:34:28.120Z,58.83
2022-12-09T21:37:13.985Z,57.42
2022-12-09T21:39:42.270Z,56.80
2022-12-09T21:42:25.706Z,52.53
2022-12-09T21:44:54.255Z,56.00
2022-12-09T21:47:26.431Z,53.67
2022-12-09T21:52:40.135Z,54.03
2022-12-09T21:55:12.253Z,54.45
2022-12-09T21:57:42.617Z,54.10
2022-12-09T22:00:23.078Z,53.40
2022-12-09T22:02:57.191Z,56.47
2022-12-09T22:05:25.131Z,59.53
2022-12-09T22:07:56.996Z,58.60
2022-12-09T22:10:24.652Z,50.22
2022-12-09T22:12:52.124Z,50.97
2022-12-09T22:15:50.948Z,53.35
2022-12-09T22:18:22.927Z,53.47
2022-12-09T22:21:24.162Z,49.08
2022-12-09T22:23:46.581Z,55.63
2022-12-09T22:26:19.692Z,55.03
2022-12-09T22:28:53.816Z,56.03
2022-12-09T22:31:25.303Z,57.30
2022-12-09T22:33:58.384Z,44.05
2022-12-09T22:36:29.006Z,57.40
2022-12-09T22:39:00.793Z,62.38
2022-12-09T22:41:34.852Z,58.17
2022-12-09T22:44:04.206Z,46.75
2022-12-09T22:46:39.599Z,53.92
2022-12-09T22:49:08.525Z,55.88
2022-12-09T22:51:43.242Z,58.90
2022-12-09T22:54:17.036Z,39.97
2022-12-09T22:56:50.082Z,57.60
2022-12-09T22:59:22.433Z,55.72
2022-12-09T23:01:54.130Z,50.35
2022-12-09T23:04:34.055Z,51.05
2022-12-09T23:07:02.430Z,42.10
2022-12-09T23:09:40.437Z,54.75
2022-12-09T23:12:14.141Z,60.40
2022-12-09T23:14:53.649Z,62.70
2022-12-09T23:17:24.116Z,64.80
2022-12-09T23:19:54.783Z,42.17
2022-12-09T23:22:45.969Z,52.65
2022-12-09T23:28:14.399Z,54.40
2022-12-09T23:30:41.787Z,55.03
2022-12-09T23:33:08.796Z,56.10
2022-12-09T23:35:56.328Z,53.13
2022-12-09T23:38:23.332Z,51.40
2022-12-09T23:40:53.858Z,55.67
2022-12-09T23:43:23.484Z,55.55
2022-12-09T23:45:53.695Z,60.78
2022-12-09T23:48:21.902Z,44.80
2022-12-09T23:50:51.798Z,55.13
2022-12-09T23:53:21.359Z,62.20
2022-12-09T23:55:51.582Z,64.07
2022-12-09T23:58:20.388Z,61.38
